Flight Track Log - Related Links

Times and Time Zones

All times are in EDT time to prevent confusion due to time zone crossing. See the AWE1940 flight status page for this flight to view local times or setup timezone preferences in your user account.

Time Position Orientation Groundspeed Altitude Reporting Facility
EDT Latitude Longitude Course Direction KTS MPH feet Rate Location/Type
Sun 06:37:47 PM 29.9572 -95.3392 120° Southeast 183 211 1,100  Level Houston Center
Sun 06:38:36 PM 29.9367 -95.2983 120° Southeast 215 247 2,300 1,962 Climbing Houston Center
Sun 06:39:31 PM 29.9214 -95.2256 104° East 263 303 4,500 2,656 Climbing Houston Center
Sun 06:40:38 PM 29.9247 -95.1261 88° East 279 321 7,700 2,698 Climbing Houston Center
Sun 06:41:40 PM 29.9331 -95.0358 84° East 287 330 10,300 2,096 Climbing Houston Center
Sun 06:43:04 PM 29.9453 -94.8967 84° East 325 374 12,800 1,917 Climbing Houston Center
Sun 06:44:04 PM 29.9564 -94.7836 84° East 349 402 14,900 2,164 Climbing Houston Center
Sun 06:45:06 PM 29.9653 -94.6672 85° East 363 418 17,200 2,032 Climbing Houston Center
Sun 06:46:08 PM 29.9758 -94.5483 84° East 371 427 19,100 1,756 Climbing Houston Center
Sun 06:47:09 PM 29.9869 -94.4217 84° East 379 436 20,800 1,610 Climbing Houston Center
Sun 06:48:11 PM 29.9981 -94.2961 84° East 392 451 22,400 1,500 Climbing Houston Center
Sun 06:49:13 PM 30.0139 -94.1686 82° East 403 464 23,900 1,452 Climbing Houston Center
Sun 06:50:15 PM 30.0303 -94.0386 82° East 412 474 25,400 1,366 Climbing Houston Center
Sun 06:51:16 PM 30.0667 -93.8839 75° East 426 490 26,700 1,268 Climbing Houston Center
Sun 06:52:18 PM 30.1136 -93.7564 67° East 433 498 28,000 1,113 Climbing Houston Center
Sun 06:53:20 PM 30.1578 -93.6292 68° East 434 499 29,000 823 Climbing Houston Center
Sun 06:54:22 PM 30.2031 -93.4981 68° East 447 514 29,700 1,073 Climbing Houston Center
Sun 06:55:23 PM 30.2603 -93.3403 67° East 453 521 31,200 1,171 Climbing Houston Center
Sun 06:56:25 PM 30.3072 -93.2078 68° East 450 518 32,100 774 Climbing Houston Center
Sun 06:57:27 PM 30.3536 -93.0753 68° East 445 512 32,800 435 Climbing Houston Center
Sun 06:58:29 PM 30.4006 -92.9400 68° East 452 520 33,000 97 Climbing Houston Center
Sun 06:59:31 PM 30.4486 -92.8047 68° East 455 524 33,000  Level Houston Center
Sun 07:00:32 PM 30.4942 -92.6708 68° East 448 516 33,000  Level Houston Center
Sun 07:01:34 PM 30.5475 -92.5175 68° East 454 522 33,000  Level Houston Center
Sun 07:02:38 PM 30.5950 -92.3794 68° East 460 529 33,000  Level Houston Center
Sun 07:03:37 PM 30.6572 -92.2514 61° Northeast 458 527 33,000  Level Houston Center
Sun 07:04:39 PM 30.7219 -92.1264 59° Northeast 457 526 33,000  Level Houston Center
Sun 07:05:41 PM 30.8006 -91.9753 59° Northeast 457 526 33,000  Level Houston Center
Sun 07:06:42 PM 30.8661 -91.8478 59° Northeast 460 529 33,000  Level Houston Center
Sun 07:07:44 PM 30.9328 -91.7214 58° Northeast 461 531 33,000  Level Houston Center
Sun 07:08:46 PM 30.9978 -91.5942 59° Northeast 460 529 33,000  Level Houston Center
Sun 07:09:48 PM 31.0628 -91.4656 59° Northeast 462 532 33,000  Level Houston Center
Sun 07:10:49 PM 31.1294 -91.3344 59° Northeast 459 528 33,000  Level Houston Center
Sun 07:11:51 PM 31.1950 -91.2047 59° Northeast 461 531 33,000  Level Houston Center
Sun 07:12:53 PM 31.2611 -91.0750 59° Northeast 462 532 33,000  Level Houston Center
Sun 07:13:55 PM 31.3397 -90.9200 59° Northeast 462 532 33,000  Level Houston Center
Sun 07:14:56 PM 31.4036 -90.7917 60° Northeast 458 527 33,000  Level Houston Center
Sun 07:15:58 PM 31.4694 -90.6625 59° Northeast 461 531 33,000  Level Houston Center
Sun 07:17:00 PM 31.5333 -90.5322 60° Northeast 461 531 33,000  Level Houston Center
Sun 07:18:02 PM 31.5983 -90.4033 59° Northeast 459 528 33,000  Level Houston Center
Sun 07:19:04 PM 31.6631 -90.2739 60° Northeast 459 528 33,000  Level Houston Center
Sun 07:20:05 PM 31.7269 -90.1431 60° Northeast 461 531 33,000  Level Houston Center
Sun 07:21:07 PM 31.8053 -89.9867 59° Northeast 462 532 33,000  Level Houston Center
Sun 07:22:09 PM 31.8711 -89.8572 59° Northeast 463 533 33,000  Level Houston Center
Sun 07:22:56 PM 31.9147 -89.7628 61° Northeast 462 532 33,000  Level Memphis Center
Sun 07:23:55 PM 31.9789 -89.6325 60° Northeast 462 532 33,000  Level Memphis Center
Sun 07:24:56 PM 32.0447 -89.4994 60° Northeast 467 537 33,000  Level Memphis Center
Sun 07:25:56 PM 32.1086 -89.3689 60° Northeast 462 532 33,000  Level Memphis Center
Sun 07:26:56 PM 32.1719 -89.2358 61° Northeast 462 532 33,000  Level Memphis Center
Sun 07:27:56 PM 32.2375 -89.1022 60° Northeast 462 532 33,000  Level Memphis Center
Sun 07:28:56 PM 32.3008 -88.9736 60° Northeast 462 532 33,000  Level Memphis Center
Sun 07:29:56 PM 32.3642 -88.8422 60° Northeast 462 532 33,000  Level Memphis Center
Sun 07:30:56 PM 32.4250 -88.7083 62° Northeast 462 532 33,000  Level Memphis Center
Sun 07:31:56 PM 32.4858 -88.5767 61° Northeast 462 532 33,000  Level Memphis Center
Sun 07:33:54 PM 32.6072 -88.3219 60° Northeast 444 511 33,000  Level Atlanta Center
Sun 07:34:54 PM 32.6681 -88.1914 61° Northeast 444 511 33,000  Level Atlanta Center
Sun 07:35:54 PM 32.7339 -88.0367 63° Northeast 449 517 33,000  Level Atlanta Center
Sun 07:36:54 PM 32.7919 -87.9158 60° Northeast 454 522 33,000  Level Atlanta Center
Sun 07:37:54 PM 32.8522 -87.7850 61° Northeast 454 522 33,000  Level Atlanta Center
Sun 07:38:54 PM 32.9125 -87.6539 61° Northeast 454 522 33,000  Level Atlanta Center
Sun 07:39:54 PM 32.9686 -87.5225 63° Northeast 447 514 33,000  Level Atlanta Center
Sun 07:40:54 PM 33.0353 -87.3739 62° Northeast 446 513 33,000  Level Atlanta Center
Sun 07:41:54 PM 33.0953 -87.2400 62° Northeast 452 520 33,000  Level Atlanta Center
Sun 07:42:54 PM 33.1550 -87.1081 62° Northeast 452 520 33,000  Level Atlanta Center
Sun 07:43:54 PM 33.2100 -86.9908 61° Northeast 443 510 33,000  Level Atlanta Center
Sun 07:44:54 PM 33.2489 -86.8481 72° East 516 594 33,000  Level Atlanta Center
Sun 07:45:54 PM 33.2728 -86.7022 79° East 431 496 33,000  Level Atlanta Center
Sun 07:46:54 PM 33.2992 -86.5442 79° East 453 521 33,000  Level Atlanta Center
Sun 07:47:54 PM 33.3231 -86.3981 79° East 458 527 33,000  Level Atlanta Center
Sun 07:48:54 PM 33.3486 -86.2494 78° East 458 527 33,000  Level Atlanta Center
Sun 07:49:54 PM 33.3742 -86.1011 78° East 458 527 33,000  Level Atlanta Center
Sun 07:50:54 PM 33.3975 -85.9497 79° East 458 527 33,000  Level Atlanta Center
Sun 07:51:54 PM 33.4206 -85.7961 80° East 464 534 33,000  Level Atlanta Center
Sun 07:52:54 PM 33.4478 -85.6372 78° East 459 528 33,000  Level Atlanta Center
Sun 07:53:54 PM 33.4728 -85.4833 79° East 459 528 33,000  Level Atlanta Center
Sun 07:54:54 PM 33.4953 -85.3317 80° East 470 541 33,000  Level Atlanta Center
Sun 07:55:54 PM 33.5197 -85.1775 79° East 470 541 33,000  Level Atlanta Center
Sun 07:56:54 PM 33.5397 -85.0258 81° East 470 541 33,000  Level Atlanta Center
Sun 07:57:54 PM 33.5639 -84.8689 79° East 470 541 33,000  Level Atlanta Center
Sun 07:58:54 PM 33.5858 -84.7144 80° East 470 541 33,000  Level Atlanta Center
Sun 07:59:54 PM 33.6117 -84.5603 79° East 470 541 33,000  Level Atlanta Center
Sun 08:00:54 PM 33.6289 -84.4206 82° East 470 541 33,000 -1,000 Level Atlanta Center
Sun 08:01:54 PM 33.6750 -84.2536 72° East 459 528 31,000  Descending Atlanta Center
Sun 08:02:54 PM 33.7192 -84.1061 70° East 474 545 33,000 1,000 Climbing Atlanta Center
Sun 08:03:54 PM 33.7608 -83.9589 71° East 474 545 33,000  Level Atlanta Center
Sun 08:04:54 PM 33.8025 -83.8089 71° East 463 533 33,000  Level Atlanta Center
Sun 08:05:54 PM 33.8439 -83.6611 71° East 463 533 33,000  Level Atlanta Center
Sun 08:06:54 PM 33.8850 -83.5133 71° East 463 533 33,000  Level Atlanta Center
Sun 08:07:54 PM 33.9239 -83.3653 72° East 463 533 33,000  Level Atlanta Center
Sun 08:08:54 PM 33.9669 -83.2197 70° East 458 527 33,000 -450 Level Atlanta Center
Sun 08:09:54 PM 34.0053 -83.0664 73° East 468 539 32,100 -1,200 Descending Atlanta Center
Sun 08:10:54 PM 34.0417 -82.9333 72° East 468 539 30,600 -1,650 Descending Atlanta Center
Sun 08:11:54 PM 34.0819 -82.7797 72° East 468 539 28,800 -1,900 Descending Atlanta Center
Sun 08:12:54 PM 34.1200 -82.6311 73° East 462 532 26,800 2,100 Descending Atlanta Center
Sun 08:13:54 PM 34.1603 -82.4950 70° East 455 524 33,000 -1,350 Climbing Atlanta Center
Sun 08:14:54 PM 34.1981 -82.3561 72° East 435 501 24,100 -4,500 Descending Atlanta Center
Sun 08:15:54 PM 34.2336 -82.2197 72° East 429 494 24,000 -50 Descending Atlanta Center
Sun 08:16:54 PM 34.2903 -82.1003 60° Northeast 418 481 24,000 -200 Level Atlanta Center
Sun 08:17:54 PM 34.3722 -81.9978 46° Northeast 407 468 23,600 -1,900 Descending Atlanta Center
Sun 08:18:54 PM 34.4517 -81.8975 46° Northeast 412 474 20,200 -2,750 Descending Atlanta Center
Sun 08:19:54 PM 34.5272 -81.7997 47° Northeast 406 467 18,100 -2,000 Descending Atlanta Center
Sun 08:20:54 PM 34.6028 -81.7069 45° Northeast 386 444 16,200 -2,450 Descending Atlanta Center
Sun 08:21:54 PM 34.6822 -81.6089 45° Northeast 364 419 13,200 -2,150 Descending Atlanta Center
Sun 08:22:54 PM 34.7494 -81.5233 46° Northeast 359 413 11,900 -700 Descending Atlanta Center
Sun 08:23:54 PM 34.8106 -81.4483 45° Northeast 322 371 11,800 -500 Descending Atlanta Center
Sun 08:24:54 PM 34.8692 -81.3706 47° Northeast 314 361 10,900 -800 Descending Atlanta Center
Sun 08:25:54 PM 34.9200 -81.3056 46° Northeast 301 346 10,200 -450 Descending Atlanta Center
Sun 08:26:54 PM 34.9767 -81.2300 48° Northeast 301 346 10,000 -100 Descending Atlanta Center
Sun 08:27:54 PM 35.0336 -81.1597 45° Northeast 301 346 10,000 -50 Level Atlanta Center
Sun 08:28:54 PM 35.0903 -81.0867 47° Northeast 301 346 9,900 -400 Descending Atlanta Center
Sun 08:29:54 PM 35.1669 -81.0686 11° North 279 321 9,200 -1,150 Descending Atlanta Center
Sun 08:30:54 PM 35.2478 -81.0403 16° North 284 327 7,600 -1,414 Descending Atlanta Center
Sun 08:32:14 PM 35.3247 -80.9511 43° Northeast 272 313 5,900 -1,200 Descending Atlanta Center
Sun 08:33:14 PM 35.3750 -80.8778 50° Northeast 264 304 4,800 -942 Descending Atlanta Center
Sun 08:34:15 PM 35.3669 -80.8094 98° East 224 258 4,000 -541 Descending Atlanta Center
Sun 08:35:16 PM 35.3153 -80.8217 191° South 175 201 3,700 -295 Descending Atlanta Center

Login

Don't have an account? Register now (free) for customized features, flight alerts, and more!